createdAt,value
2023-05-05T00:00:13.178Z,61.72
2023-05-05T00:00:25.737Z,61.75
2023-05-05T00:00:37.760Z,61.63
2023-05-05T00:00:51.708Z,61.91
2023-05-05T00:01:03.648Z,61.64
2023-05-05T00:01:15.605Z,61.83
2023-05-05T00:01:30.258Z,61.71
2023-05-05T00:01:42.434Z,61.74
2023-05-05T00:01:54.990Z,61.79
2023-05-05T00:02:07.480Z,61.84
2023-05-05T00:02:19.551Z,61.81
2023-05-05T00:02:31.539Z,61.80
2023-05-05T00:02:43.748Z,62.05
2023-05-05T00:02:58.871Z,62.10
2023-05-05T00:03:10.996Z,62.12
2023-05-05T00:03:24.976Z,61.73
2023-05-05T00:03:37.370Z,61.94
2023-05-05T00:03:49.578Z,61.80
2023-05-05T00:04:01.770Z,61.74
2023-05-05T00:04:13.779Z,61.58
2023-05-05T00:04:25.731Z,61.31
2023-05-05T00:04:37.936Z,61.33
2023-05-05T00:04:49.868Z,61.51
2023-05-05T00:05:02.104Z,61.38
2023-05-05T00:05:14.878Z,61.48
2023-05-05T00:05:27.113Z,61.39
2023-05-05T00:05:39.055Z,61.54
2023-05-05T00:05:52.249Z,61.15
2023-05-05T00:06:05.482Z,61.48
2023-05-05T00:06:17.981Z,61.57
2023-05-05T00:06:29.898Z,61.65
2023-05-05T00:06:42.209Z,61.78
2023-05-05T00:06:54.436Z,61.82
2023-05-05T00:07:06.429Z,62.02
2023-05-05T00:07:18.566Z,61.99
2023-05-05T00:07:30.704Z,62.46
2023-05-05T00:07:42.818Z,62.38
2023-05-05T00:07:55.004Z,62.59
2023-05-05T00:08:09.685Z,62.86
2023-05-05T00:08:22.510Z,62.81
2023-05-05T00:08:34.805Z,62.65
2023-05-05T00:08:47.188Z,62.80
2023-05-05T00:08:59.226Z,63.15
2023-05-05T00:09:11.224Z,62.76
2023-05-05T00:09:23.356Z,63.17
2023-05-05T00:09:35.295Z,62.87
2023-05-05T00:09:47.251Z,62.94
2023-05-05T00:09:59.240Z,63.02
2023-05-05T00:10:11.324Z,63.12
2023-05-05T00:10:23.869Z,62.84
2023-05-05T00:10:36.748Z,62.78
2023-05-05T00:10:53.272Z,62.97
2023-05-05T00:11:05.223Z,63.07
2023-05-05T00:11:17.133Z,63.17
2023-05-05T00:11:29.109Z,63.33
2023-05-05T00:11:41.142Z,63.57
2023-05-05T00:11:53.343Z,63.55
2023-05-05T00:12:05.709Z,63.74
2023-05-05T00:12:17.608Z,63.57
2023-05-05T00:12:30.316Z,63.96
2023-05-05T00:12:42.300Z,63.57
2023-05-05T00:12:54.414Z,63.53
2023-05-05T00:13:06.740Z,63.58
2023-05-05T00:13:20.010Z,63.65
2023-05-05T00:13:31.990Z,63.50
2023-05-05T00:13:44.304Z,63.53
2023-05-05T00:13:56.282Z,63.24
2023-05-05T00:14:08.378Z,63.47
2023-05-05T00:14:20.317Z,63.41
2023-05-05T00:14:32.602Z,63.64
2023-05-05T00:14:44.544Z,63.00
2023-05-05T00:14:56.808Z,63.20
2023-05-05T00:15:09.107Z,63.12
2023-05-05T00:15:20.995Z,63.06
2023-05-05T00:15:32.944Z,62.99
2023-05-05T00:15:47.289Z,62.88
2023-05-05T00:15:59.369Z,62.76
2023-05-05T00:16:11.341Z,62.54
2023-05-05T00:16:23.518Z,62.72
2023-05-05T00:16:35.601Z,62.74
2023-05-05T00:16:47.707Z,62.80
2023-05-05T00:16:59.738Z,62.59
2023-05-05T00:17:11.847Z,62.80
2023-05-05T00:17:23.899Z,62.90
2023-05-05T00:17:35.836Z,62.76
2023-05-05T00:17:53.087Z,62.85
2023-05-05T00:18:05.261Z,63.07
2023-05-05T00:18:18.289Z,62.54
2023-05-05T00:18:30.397Z,62.89
2023-05-05T00:18:42.276Z,63.20
2023-05-05T00:18:54.348Z,63.34
2023-05-05T00:19:06.639Z,63.08
2023-05-05T00:19:18.554Z,62.99
2023-05-05T00:19:30.426Z,62.98
2023-05-05T00:19:42.968Z,63.19
2023-05-05T00:19:54.886Z,62.80
2023-05-05T00:20:08.673Z,62.99
2023-05-05T00:20:21.113Z,62.94
2023-05-05T00:20:33.083Z,62.96
2023-05-05T00:20:47.134Z,63.20
2023-05-05T00:20:59.283Z,62.77
2023-05-05T00:21:11.391Z,63.20
2023-05-05T00:21:23.466Z,63.17
2023-05-05T00:21:35.564Z,63.19
2023-05-05T00:21:47.529Z,63.20
2023-05-05T00:21:59.518Z,63.21
2023-05-05T00:22:11.755Z,63.28
2023-05-05T00:22:23.798Z,62.87
2023-05-05T00:22:36.201Z,62.73
2023-05-05T00:22:48.384Z,62.66
2023-05-05T00:23:01.022Z,62.44
2023-05-05T00:23:13.986Z,62.24
2023-05-05T00:23:25.965Z,62.20
2023-05-05T00:23:37.907Z,62.29
2023-05-05T00:23:49.827Z,62.42
2023-05-05T00:24:01.863Z,62.29
2023-05-05T00:24:13.855Z,62.90
2023-05-05T00:24:26.246Z,62.53
2023-05-05T00:24:38.231Z,62.50
2023-05-05T00:24:50.265Z,62.46
2023-05-05T00:25:02.223Z,62.46
2023-05-05T00:25:14.482Z,62.48
2023-05-05T00:25:26.418Z,62.70
2023-05-05T00:25:38.658Z,62.82
2023-05-05T00:25:51.025Z,62.72
2023-05-05T00:26:03.313Z,62.81
2023-05-05T00:26:15.274Z,62.54
2023-05-05T00:26:27.276Z,62.52
2023-05-05T00:26:39.244Z,62.45
2023-05-05T00:26:51.247Z,62.52
2023-05-05T00:27:03.899Z,62.19
2023-05-05T00:27:15.973Z,62.15
2023-05-05T00:27:27.933Z,62.17
2023-05-05T00:27:41.037Z,62.11
2023-05-05T00:27:53.123Z,62.22
2023-05-05T00:28:05.309Z,61.98
2023-05-05T00:28:17.291Z,62.10
2023-05-05T00:28:30.009Z,62.08
2023-05-05T00:28:41.932Z,62.13
2023-05-05T00:28:54.073Z,61.81
2023-05-05T00:29:09.285Z,61.96
2023-05-05T00:29:21.492Z,62.21
2023-05-05T00:29:33.426Z,62.11
2023-05-05T00:29:45.375Z,62.17
2023-05-05T00:29:57.553Z,62.46
2023-05-05T00:30:10.561Z,62.43
2023-05-05T00:30:23.493Z,62.63
2023-05-05T00:30:37.243Z,62.60
2023-05-05T00:30:49.476Z,62.57
2023-05-05T00:31:01.620Z,62.79
2023-05-05T00:31:16.621Z,62.60
2023-05-05T00:31:28.543Z,62.91
2023-05-05T00:31:40.626Z,62.65
2023-05-05T00:31:53.050Z,62.51
2023-05-05T00:32:05.123Z,62.72
2023-05-05T00:32:17.277Z,62.90
2023-05-05T00:32:29.288Z,62.86
2023-05-05T00:32:41.549Z,62.99
2023-05-05T00:32:54.723Z,63.11
2023-05-05T00:33:06.797Z,63.25
2023-05-05T00:33:18.695Z,63.02
2023-05-05T00:33:30.632Z,62.98
2023-05-05T00:33:42.636Z,63.03
2023-05-05T00:33:54.845Z,63.15
2023-05-05T00:34:06.885Z,63.19
2023-05-05T00:34:18.953Z,63.03
2023-05-05T00:34:30.956Z,63.15
2023-05-05T00:34:43.228Z,63.26
2023-05-05T00:34:56.154Z,63.28
2023-05-05T00:35:08.819Z,63.22
2023-05-05T00:35:20.905Z,63.11
2023-05-05T00:35:33.038Z,63.25
2023-05-05T00:35:45.128Z,63.08
2023-05-05T00:35:57.269Z,63.27
2023-05-05T00:36:09.744Z,63.49
2023-05-05T00:36:24.116Z,63.45
2023-05-05T00:36:36.173Z,63.88
2023-05-05T00:36:48.396Z,63.53
2023-05-05T00:37:00.364Z,63.53
2023-05-05T00:37:12.418Z,63.61
2023-05-05T00:37:24.400Z,63.74
2023-05-05T00:37:36.551Z,63.69
2023-05-05T00:37:49.328Z,63.61
2023-05-05T00:38:01.420Z,63.67
2023-05-05T00:38:13.550Z,63.71
2023-05-05T00:38:25.549Z,63.75
2023-05-05T00:38:38.024Z,63.80
2023-05-05T00:38:49.950Z,63.83
2023-05-05T00:39:01.902Z,63.58
2023-05-05T00:39:14.349Z,63.64
2023-05-05T00:39:26.478Z,63.69
2023-05-05T00:39:38.595Z,63.58
2023-05-05T00:39:50.826Z,63.84
2023-05-05T00:40:03.371Z,63.82
2023-05-05T00:40:15.881Z,63.88
2023-05-05T00:40:27.862Z,63.95
2023-05-05T00:40:39.819Z,63.75
2023-05-05T00:40:51.787Z,63.85
2023-05-05T00:41:03.813Z,64.04
2023-05-05T00:41:15.950Z,63.96
2023-05-05T00:41:27.878Z,64.08
2023-05-05T00:41:40.741Z,64.07
2023-05-05T00:41:52.685Z,64.08
2023-05-05T00:42:04.741Z,63.99
2023-05-05T00:42:16.644Z,64.02
2023-05-05T00:42:39.535Z,63.84
2023-05-05T00:42:51.724Z,63.90
2023-05-05T00:43:03.862Z,63.86
2023-05-05T00:43:15.860Z,63.99
2023-05-05T00:43:27.828Z,63.83
2023-05-05T00:43:39.821Z,63.93
2023-05-05T00:43:52.413Z,64.09
2023-05-05T00:44:04.538Z,63.92
2023-05-05T00:44:16.609Z,63.92
2023-05-05T00:44:40.223Z,64.47
2023-05-05T00:44:52.422Z,64.58
2023-05-05T00:45:04.656Z,64.48
2023-05-05T00:45:17.629Z,64.17
2023-05-05T00:45:29.947Z,64.22
2023-05-05T00:45:44.602Z,64.16
2023-05-05T00:46:01.967Z,64.22
2023-05-05T00:46:29.110Z,64.20
2023-05-05T00:46:41.863Z,64.05
2023-05-05T00:46:53.809Z,64.02
2023-05-05T00:47:06.167Z,63.75
2023-05-05T00:47:19.545Z,63.91
2023-05-05T00:47:31.579Z,63.73
2023-05-05T00:47:49.181Z,63.96
2023-05-05T00:48:01.618Z,63.89
2023-05-05T00:48:14.360Z,63.86
2023-05-05T00:48:26.799Z,63.76
2023-05-05T00:48:38.783Z,63.99
2023-05-05T00:48:51.699Z,63.82
2023-05-05T00:49:03.881Z,63.71
2023-05-05T00:49:16.300Z,63.61
2023-05-05T00:49:28.724Z,63.83
2023-05-05T00:49:40.951Z,63.69
2023-05-05T00:49:52.929Z,63.83
2023-05-05T00:50:11.769Z,63.90
2023-05-05T00:50:27.233Z,63.83
2023-05-05T00:50:39.765Z,63.87
2023-05-05T00:50:51.955Z,63.82
2023-05-05T00:51:08.705Z,63.89
2023-05-05T00:51:21.786Z,63.75
2023-05-05T00:51:33.780Z,63.87
2023-05-05T00:51:46.004Z,63.79
2023-05-05T00:51:58.179Z,63.76
2023-05-05T00:52:11.492Z,63.85
2023-05-05T00:52:24.007Z,63.01
2023-05-05T00:52:37.351Z,62.93
2023-05-05T00:52:50.754Z,62.82
2023-05-05T00:53:05.749Z,62.93
2023-05-05T00:53:17.882Z,63.15
2023-05-05T00:53:29.957Z,63.29
2023-05-05T00:53:44.916Z,63.19
2023-05-05T00:53:57.170Z,63.05
2023-05-05T00:54:09.164Z,63.08
2023-05-05T00:54:21.086Z,63.20
2023-05-05T00:54:36.632Z,63.13
2023-05-05T00:54:48.949Z,62.86
2023-05-05T00:55:00.918Z,63.29
2023-05-05T00:55:13.114Z,63.15
2023-05-05T00:55:26.011Z,63.33
2023-05-05T00:55:38.009Z,63.19
2023-05-05T00:55:51.119Z,63.38
2023-05-05T00:56:03.242Z,63.53
2023-05-05T00:56:21.786Z,63.16
2023-05-05T00:56:33.862Z,63.57
2023-05-05T00:56:45.809Z,63.48
2023-05-05T00:56:57.931Z,63.53
2023-05-05T00:57:13.646Z,63.79
2023-05-05T00:57:26.076Z,63.57
2023-05-05T00:57:38.041Z,63.79
2023-05-05T00:57:50.370Z,63.77
2023-05-05T00:58:04.068Z,63.47
2023-05-05T00:58:16.197Z,63.47
2023-05-05T00:58:30.356Z,63.57
2023-05-05T00:58:43.481Z,63.84
2023-05-05T00:58:56.336Z,63.84
2023-05-05T00:59:08.364Z,63.73
2023-05-05T00:59:23.427Z,63.91
2023-05-05T00:59:36.769Z,63.95
2023-05-05T00:59:50.155Z,63.80
2023-05-05T01:00:02.932Z,63.80
2023-05-05T01:00:15.517Z,63.65
2023-05-05T01:00:28.609Z,63.63
2023-05-05T01:00:40.577Z,63.85
2023-05-05T01:00:52.930Z,63.91
2023-05-05T01:01:04.913Z,63.99
2023-05-05T01:01:17.721Z,63.94
2023-05-05T01:01:29.727Z,64.06
2023-05-05T01:01:41.758Z,64.13
2023-05-05T01:01:53.719Z,64.39
2023-05-05T01:02:05.948Z,64.12
2023-05-05T01:02:18.916Z,64.56
2023-05-05T01:02:31.353Z,64.62
2023-05-05T01:02:44.719Z,64.73
2023-05-05T01:02:56.850Z,64.86
2023-05-05T01:03:09.101Z,64.60
2023-05-05T01:03:21.158Z,64.78
2023-05-05T01:03:33.436Z,64.67
2023-05-05T01:03:45.756Z,64.71
2023-05-05T01:03:57.872Z,64.54
2023-05-05T01:04:10.230Z,64.50
2023-05-05T01:04:25.738Z,64.43
2023-05-05T01:04:39.712Z,64.28
2023-05-05T01:04:52.589Z,64.26
2023-05-05T01:05:05.682Z,64.19
2023-05-05T01:05:19.939Z,64.45
2023-05-05T01:05:42.269Z,64.61
2023-05-05T01:06:19.877Z,65.07
2023-05-05T01:07:00.722Z,64.71
2023-05-05T01:07:40.930Z,64.62
2023-05-05T01:08:04.693Z,64.58
2023-05-05T01:08:28.842Z,64.63
2023-05-05T01:09:23.091Z,64.80
2023-05-05T01:09:56.163Z,65.02
2023-05-05T01:10:55.061Z,65.25
2023-05-05T01:11:46.064Z,64.98
2023-05-05T01:12:27.256Z,65.25
2023-05-05T01:13:00.659Z,65.43
2023-05-05T01:13:23.289Z,65.29
2023-05-05T01:14:01.164Z,65.50
2023-05-05T01:14:17.270Z,65.60
2023-05-05T01:14:37.374Z,65.59
2023-05-05T01:15:22.742Z,65.91
2023-05-05T01:15:37.953Z,66.08
2023-05-05T01:15:56.475Z,66.45
2023-05-05T01:16:25.388Z,66.83
2023-05-05T01:16:41.411Z,66.55
2023-05-05T01:17:04.582Z,66.49
2023-05-05T01:17:19.473Z,65.91
2023-05-05T01:17:41.884Z,65.53
2023-05-05T01:18:27.174Z,65.72
2023-05-05T01:18:52.309Z,65.22
2023-05-05T01:19:19.619Z,65.23
2023-05-05T01:19:53.940Z,64.83
2023-05-05T01:20:23.605Z,64.78
2023-05-05T01:20:48.713Z,64.81
2023-05-05T01:21:04.119Z,65.30
2023-05-05T01:21:31.274Z,65.42
2023-05-05T01:21:56.040Z,65.55
2023-05-05T01:22:11.939Z,65.41
2023-05-05T01:22:32.961Z,65.63
2023-05-05T01:22:53.067Z,65.68
2023-05-05T01:23:07.474Z,65.66
2023-05-05T01:23:47.674Z,65.71
2023-05-05T01:24:22.197Z,65.93
2023-05-05T01:25:12.920Z,65.88
2023-05-05T01:25:44.928Z,66.14
2023-05-05T01:26:25.733Z,66.21
2023-05-05T01:27:06.056Z,66.11
2023-05-05T01:27:39.554Z,65.92
2023-05-05T01:28:07.835Z,65.88
2023-05-05T01:28:42.590Z,65.98
2023-05-05T01:29:32.820Z,66.07
2023-05-05T01:30:01.236Z,66.08
2023-05-05T01:30:44.085Z,66.38
2023-05-05T01:31:35.635Z,66.51
2023-05-05T01:31:53.709Z,66.58
2023-05-05T01:32:14.865Z,66.47
2023-05-05T01:32:29.893Z,65.96
2023-05-05T01:32:47.788Z,65.81
2023-05-05T01:33:08.381Z,65.72
2023-05-05T01:33:26.136Z,65.53
2023-05-05T01:33:59.067Z,65.54
2023-05-05T01:34:15.510Z,65.43
2023-05-05T01:34:34.384Z,65.73
2023-05-05T01:34:58.530Z,65.82
2023-05-05T01:35:18.097Z,66.15
2023-05-05T01:35:36.060Z,66.03
2023-05-05T01:35:53.467Z,65.82
2023-05-05T01:36:16.342Z,66.15
2023-05-05T01:36:42.124Z,65.44
2023-05-05T01:37:17.505Z,65.80
2023-05-05T01:37:36.952Z,65.84
2023-05-05T01:37:54.778Z,65.66
2023-05-05T01:38:18.454Z,65.42
2023-05-05T01:38:40.409Z,65.38
2023-05-05T01:38:58.096Z,65.14
2023-05-05T01:39:15.755Z,65.13
2023-05-05T01:39:31.553Z,65.12
2023-05-05T01:39:44.872Z,65.20
2023-05-05T01:40:01.946Z,65.29
2023-05-05T01:40:20.156Z,65.53
2023-05-05T01:40:39.002Z,65.51
2023-05-05T01:41:12.623Z,65.42
2023-05-05T01:41:30.406Z,65.20
2023-05-05T01:41:46.677Z,65.36
2023-05-05T01:42:04.783Z,65.71
2023-05-05T01:42:18.607Z,65.75
2023-05-05T01:42:32.548Z,65.84
2023-05-05T01:42:45.382Z,65.95
2023-05-05T01:43:00.726Z,66.13
2023-05-05T01:43:15.241Z,66.16
2023-05-05T01:43:30.634Z,66.22
2023-05-05T01:43:46.199Z,66.33
2023-05-05T01:44:01.198Z,66.13
2023-05-05T01:44:16.420Z,66.15
2023-05-05T01:44:29.728Z,65.83
2023-05-05T01:44:43.997Z,65.76
2023-05-05T01:44:57.214Z,65.50
2023-05-05T01:45:11.679Z,65.36
2023-05-05T01:45:28.724Z,65.34
2023-05-05T01:45:43.963Z,65.50
2023-05-05T01:45:57.304Z,65.41
2023-05-05T01:46:10.130Z,65.69
2023-05-05T01:46:24.554Z,65.74
2023-05-05T01:46:37.069Z,65.78
2023-05-05T01:46:52.061Z,65.96
2023-05-05T01:47:06.503Z,65.78
2023-05-05T01:47:21.131Z,65.69
2023-05-05T01:47:33.725Z,65.69
2023-05-05T01:47:46.876Z,65.82
2023-05-05T01:48:01.712Z,65.63
2023-05-05T01:48:17.848Z,65.42
2023-05-05T01:48:30.867Z,65.52
2023-05-05T01:48:44.292Z,65.67
2023-05-05T01:48:58.697Z,65.60
2023-05-05T01:49:12.814Z,65.90
2023-05-05T01:49:26.263Z,66.13
2023-05-05T01:49:38.489Z,66.45
2023-05-05T01:49:51.270Z,66.35
2023-05-05T01:50:05.055Z,66.31
2023-05-05T01:50:18.466Z,66.37
2023-05-05T01:50:31.343Z,66.31
2023-05-05T01:50:49.477Z,66.23
2023-05-05T01:51:03.402Z,66.30
2023-05-05T01:51:19.090Z,66.43
2023-05-05T01:51:32.207Z,66.01
2023-05-05T01:51:47.101Z,66.23
2023-05-05T01:52:01.281Z,66.05
2023-05-05T01:52:16.945Z,66.14
2023-05-05T01:52:29.867Z,66.05
2023-05-05T01:52:42.976Z,66.12
2023-05-05T01:52:59.547Z,66.34
2023-05-05T01:53:12.914Z,66.09
2023-05-05T01:53:27.201Z,66.14
2023-05-05T01:53:40.200Z,65.92
2023-05-05T01:53:53.414Z,66.24
2023-05-05T01:54:09.596Z,66.30
2023-05-05T01:54:24.176Z,66.13
2023-05-05T01:54:38.118Z,66.25
2023-05-05T01:54:51.430Z,65.97
2023-05-05T01:55:04.685Z,66.38
2023-05-05T01:55:18.379Z,66.29
2023-05-05T01:55:32.167Z,66.06
2023-05-05T01:55:46.186Z,65.96
2023-05-05T01:55:59.063Z,66.10
2023-05-05T01:56:15.547Z,65.88
2023-05-05T01:56:30.134Z,65.66
2023-05-05T01:56:43.611Z,65.47
2023-05-05T01:56:59.015Z,65.68
2023-05-05T01:57:12.790Z,65.78
2023-05-05T01:57:26.595Z,65.84
2023-05-05T01:57:41.017Z,65.67
2023-05-05T01:57:55.771Z,65.85
2023-05-05T01:58:09.683Z,65.93
2023-05-05T01:58:23.451Z,65.93
2023-05-05T01:58:37.172Z,66.25
2023-05-05T01:58:50.532Z,66.13
2023-05-05T01:59:04.749Z,66.02
2023-05-05T01:59:18.679Z,65.91
2023-05-05T01:59:33.305Z,65.99
2023-05-05T01:59:45.608Z,65.91
2023-05-05T01:59:59.318Z,66.24
2023-05-05T02:00:12.665Z,65.96
2023-05-05T02:00:27.003Z,66.04
2023-05-05T02:00:39.542Z,66.07
2023-05-05T02:00:52.950Z,66.34
2023-05-05T02:01:05.909Z,66.11
2023-05-05T02:01:21.121Z,65.98
2023-05-05T02:01:37.523Z,66.00
2023-05-05T02:01:50.897Z,65.83
2023-05-05T02:02:03.579Z,65.87
2023-05-05T02:02:18.006Z,66.11
2023-05-05T02:02:31.610Z,66.12
2023-05-05T02:02:47.602Z,66.64
2023-05-05T02:03:04.321Z,66.43
2023-05-05T02:03:18.492Z,66.27
2023-05-05T02:03:34.067Z,66.46
2023-05-05T02:03:47.754Z,66.51
2023-05-05T02:04:01.893Z,66.55
2023-05-05T02:04:17.776Z,66.57
2023-05-05T02:04:31.622Z,66.54
2023-05-05T02:04:45.019Z,66.35
2023-05-05T02:04:58.595Z,66.43
2023-05-05T02:05:12.071Z,66.22
2023-05-05T02:05:26.680Z,66.22
2023-05-05T02:05:39.822Z,66.11
2023-05-05T02:05:53.765Z,66.19
2023-05-05T02:06:08.248Z,66.11
2023-05-05T02:06:22.192Z,66.03
2023-05-05T02:06:35.674Z,66.28
2023-05-05T02:06:53.372Z,66.12
2023-05-05T02:07:07.613Z,66.11
2023-05-05T02:07:21.316Z,66.35
2023-05-05T02:07:34.553Z,66.38
2023-05-05T02:07:46.840Z,66.31
2023-05-05T02:08:00.303Z,66.09
2023-05-05T02:08:13.046Z,66.13
2023-05-05T02:08:25.950Z,66.17
2023-05-05T02:08:39.614Z,66.32
2023-05-05T02:08:52.937Z,66.30
2023-05-05T02:09:06.540Z,66.27
2023-05-05T02:09:19.445Z,66.29
2023-05-05T02:09:32.550Z,66.38
2023-05-05T02:09:45.750Z,66.43
2023-05-05T02:09:59.464Z,66.33
2023-05-05T02:10:13.634Z,66.66
2023-05-05T02:10:27.493Z,66.58
2023-05-05T02:10:41.053Z,66.90
2023-05-05T02:10:54.512Z,66.86
2023-05-05T02:11:13.409Z,66.84
2023-05-05T02:11:27.802Z,66.76
2023-05-05T02:11:40.676Z,66.99
2023-05-05T02:11:53.168Z,66.75
2023-05-05T02:12:06.196Z,66.84
2023-05-05T02:12:19.913Z,66.86
2023-05-05T02:12:33.005Z,66.80
2023-05-05T02:12:47.474Z,66.74
2023-05-05T02:13:02.592Z,66.90
2023-05-05T02:13:16.313Z,66.48
2023-05-05T02:13:32.435Z,66.42
2023-05-05T02:13:45.721Z,66.43
2023-05-05T02:14:00.315Z,66.46
2023-05-05T02:14:12.875Z,66.41
2023-05-05T02:14:27.758Z,66.42
2023-05-05T02:14:42.580Z,66.49
2023-05-05T02:14:57.069Z,66.77
2023-05-05T02:15:11.347Z,66.79
2023-05-05T02:15:24.187Z,66.69
2023-05-05T02:15:40.785Z,66.67
2023-05-05T02:15:54.740Z,66.70
2023-05-05T02:16:08.452Z,66.54
2023-05-05T02:16:21.973Z,66.53
2023-05-05T02:16:36.399Z,66.34
2023-05-05T02:16:49.991Z,66.35
2023-05-05T02:17:02.008Z,66.20
2023-05-05T02:17:16.069Z,66.10
2023-05-05T02:17:30.436Z,66.39
2023-05-05T02:17:43.407Z,66.20
2023-05-05T02:17:59.549Z,66.06
2023-05-05T02:18:12.081Z,65.97
2023-05-05T02:18:25.660Z,65.93
2023-05-05T02:18:38.828Z,66.24
2023-05-05T02:18:53.254Z,66.07
2023-05-05T02:19:05.569Z,66.38
2023-05-05T02:19:21.364Z,66.16
2023-05-05T02:19:39.046Z,66.40
2023-05-05T02:19:52.998Z,66.29
2023-05-05T02:20:07.168Z,66.57
2023-05-05T02:20:20.570Z,66.36
2023-05-05T02:20:33.835Z,66.44
2023-05-05T02:20:46.977Z,66.42
2023-05-05T02:20:59.018Z,66.21
2023-05-05T02:21:11.151Z,66.27
2023-05-05T02:21:23.255Z,66.19
2023-05-05T02:21:35.430Z,65.99
2023-05-05T02:21:47.423Z,66.04
2023-05-05T02:21:59.840Z,66.04
2023-05-05T02:22:12.263Z,66.32
2023-05-05T02:22:24.692Z,66.10
2023-05-05T02:22:36.665Z,66.30
2023-05-05T02:22:48.985Z,66.29
2023-05-05T02:23:00.939Z,66.60
2023-05-05T02:23:13.051Z,66.48
2023-05-05T02:23:25.667Z,66.43
2023-05-05T02:23:38.558Z,66.58
2023-05-05T02:23:52.086Z,66.40
2023-05-05T02:24:04.611Z,66.45
2023-05-05T02:24:16.595Z,66.23
2023-05-05T02:24:29.058Z,66.09
2023-05-05T02:24:43.613Z,66.04
2023-05-05T02:24:55.703Z,66.00
2023-05-05T02:25:08.868Z,65.84
2023-05-05T02:25:23.602Z,65.67
2023-05-05T02:25:41.888Z,66.00
2023-05-05T02:25:59.739Z,65.68
2023-05-05T02:26:13.945Z,65.83
2023-05-05T02:26:26.754Z,66.05
2023-05-05T02:26:41.166Z,66.21
2023-05-05T02:26:54.783Z,66.41
2023-05-05T02:27:08.251Z,66.20
2023-05-05T02:27:23.336Z,66.18
2023-05-05T02:27:37.404Z,65.93
2023-05-05T02:27:54.690Z,65.68
2023-05-05T02:28:15.631Z,65.55
2023-05-05T02:28:49.796Z,65.62
2023-05-05T02:29:13.049Z,65.99
2023-05-05T02:29:44.697Z,66.39
2023-05-05T02:30:01.784Z,65.99
2023-05-05T02:30:18.126Z,65.94
2023-05-05T02:30:35.048Z,65.98
2023-05-05T02:30:54.696Z,65.96
2023-05-05T02:31:08.805Z,65.86
2023-05-05T02:31:23.947Z,65.92
2023-05-05T02:31:47.384Z,65.91
2023-05-05T02:32:14.733Z,65.96
2023-05-05T02:32:52.119Z,65.85
2023-05-05T02:33:10.272Z,65.95
2023-05-05T02:33:24.858Z,65.73
2023-05-05T02:33:38.606Z,66.30
2023-05-05T02:33:53.298Z,66.33
2023-05-05T02:34:07.259Z,66.76
2023-05-05T02:34:24.663Z,67.01
2023-05-05T02:34:39.711Z,66.58
2023-05-05T02:34:54.253Z,66.54
2023-05-05T02:35:29.773Z,66.10
2023-05-05T02:35:43.232Z,66.08
2023-05-05T02:35:57.565Z,65.99
2023-05-05T02:36:17.987Z,66.32
2023-05-05T02:36:33.767Z,66.82
2023-05-05T02:36:47.776Z,66.55
2023-05-05T02:37:03.639Z,66.55
2023-05-05T02:37:19.719Z,66.45
2023-05-05T02:37:33.920Z,66.37
2023-05-05T02:37:50.553Z,66.10
2023-05-05T02:38:05.481Z,66.11
2023-05-05T02:38:18.625Z,66.01
2023-05-05T02:38:32.556Z,66.16
2023-05-05T02:38:46.420Z,66.31
2023-05-05T02:39:02.292Z,66.06
2023-05-05T02:39:21.799Z,65.95
2023-05-05T02:39:58.381Z,65.39
2023-05-05T02:40:11.974Z,65.19
2023-05-05T02:40:26.419Z,64.90
2023-05-05T02:40:41.972Z,64.88
2023-05-05T02:40:57.876Z,64.78
2023-05-05T02:41:13.727Z,64.79
2023-05-05T02:41:28.528Z,64.50
2023-05-05T02:41:42.746Z,64.50
2023-05-05T02:41:55.537Z,64.54
2023-05-05T02:42:15.824Z,64.25
2023-05-05T02:42:33.871Z,64.27
2023-05-05T02:42:47.983Z,64.42
2023-05-05T02:43:05.064Z,64.41
2023-05-05T02:43:21.935Z,64.38
2023-05-05T02:43:36.573Z,64.40
2023-05-05T02:43:52.233Z,64.55
2023-05-05T02:44:06.465Z,64.71
2023-05-05T02:44:19.788Z,64.80
2023-05-05T02:44:33.433Z,64.93
2023-05-05T02:44:46.272Z,65.19
2023-05-05T02:45:04.957Z,65.00
2023-05-05T02:45:20.041Z,65.05
2023-05-05T02:45:33.014Z,65.11
2023-05-05T02:45:45.051Z,65.27
2023-05-05T02:45:57.288Z,65.29
2023-05-05T02:46:09.328Z,65.40
2023-05-05T02:46:21.927Z,65.52
2023-05-05T02:46:34.237Z,65.50
2023-05-05T02:46:47.336Z,65.38
2023-05-05T02:46:59.355Z,65.69
2023-05-05T02:47:11.892Z,65.34
2023-05-05T02:47:28.776Z,65.70
2023-05-05T02:47:40.944Z,65.68
2023-05-05T02:47:53.499Z,65.78
2023-05-05T02:48:06.178Z,65.93
2023-05-05T02:48:18.142Z,65.97
2023-05-05T02:48:30.975Z,65.98
2023-05-05T02:48:42.914Z,65.79
2023-05-05T02:48:54.861Z,66.00
2023-05-05T02:49:06.856Z,65.91
2023-05-05T02:49:19.480Z,65.59
2023-05-05T02:49:31.530Z,65.64
2023-05-05T02:49:43.456Z,65.76
2023-05-05T02:49:55.503Z,65.63
2023-05-05T02:50:09.254Z,65.77
2023-05-05T02:50:21.530Z,65.41
2023-05-05T02:50:36.341Z,65.24
2023-05-05T02:50:48.431Z,65.39
2023-05-05T02:51:00.414Z,65.27
2023-05-05T02:51:12.549Z,65.39
2023-05-05T02:51:24.426Z,65.37
2023-05-05T02:51:36.543Z,65.18
2023-05-05T02:51:48.936Z,65.32
2023-05-05T02:52:01.125Z,65.01
2023-05-05T02:52:13.196Z,64.86
2023-05-05T02:52:25.691Z,64.83
2023-05-05T02:52:40.056Z,64.78
2023-05-05T02:52:52.348Z,64.72
2023-05-05T02:53:04.795Z,64.76
2023-05-05T02:53:17.011Z,64.73
2023-05-05T02:53:29.318Z,64.76
2023-05-05T02:53:41.466Z,64.82
2023-05-05T02:53:53.428Z,64.76
2023-05-05T02:54:05.499Z,64.80
2023-05-05T02:54:17.586Z,64.72
2023-05-05T02:54:31.467Z,64.78
2023-05-05T02:54:43.466Z,64.89
2023-05-05T02:54:55.439Z,64.88
2023-05-05T02:55:08.223Z,65.01
2023-05-05T02:55:20.318Z,64.80
2023-05-05T02:56:01.748Z,64.94
2023-05-05T02:56:26.641Z,65.40
2023-05-05T02:56:51.188Z,66.30
2023-05-05T02:57:03.950Z,66.13
2023-05-05T02:57:19.864Z,65.96
2023-05-05T02:57:38.973Z,65.94
2023-05-05T02:58:00.586Z,66.01
2023-05-05T02:58:31.586Z,66.20
2023-05-05T02:58:53.636Z,66.16
2023-05-05T02:59:33.391Z,66.33
2023-05-05T03:00:02.876Z,66.72
2023-05-05T03:00:36.368Z,66.46
2023-05-05T03:01:01.341Z,66.41
2023-05-05T03:01:25.549Z,66.53
2023-05-05T03:01:40.570Z,67.22
2023-05-05T03:02:20.596Z,67.58
2023-05-05T03:02:52.908Z,66.99
2023-05-05T03:03:16.233Z,67.14
2023-05-05T03:03:36.489Z,67.06
2023-05-05T03:03:58.592Z,67.24
2023-05-05T03:04:29.449Z,67.27
2023-05-05T03:04:50.347Z,67.01
2023-05-05T03:05:17.184Z,66.93
2023-05-05T03:05:37.614Z,66.95
2023-05-05T03:06:08.128Z,67.08
2023-05-05T03:06:22.710Z,67.20
2023-05-05T03:06:42.438Z,67.19
2023-05-05T03:06:59.075Z,67.42
2023-05-05T03:07:22.057Z,67.47
2023-05-05T03:08:02.008Z,67.74
2023-05-05T03:08:18.103Z,67.57
2023-05-05T03:08:44.910Z,67.85
2023-05-05T03:09:13.092Z,67.25
2023-05-05T03:09:33.212Z,67.42
2023-05-05T03:09:57.800Z,67.37
2023-05-05T03:10:16.666Z,67.46
2023-05-05T03:10:40.235Z,67.20
2023-05-05T03:11:04.311Z,67.15
2023-05-05T03:11:34.608Z,66.95
2023-05-05T03:12:02.349Z,66.81
2023-05-05T03:12:21.088Z,67.24
2023-05-05T03:12:56.630Z,67.09
2023-05-05T03:13:11.839Z,67.33
2023-05-05T03:13:26.373Z,67.59
2023-05-05T03:13:42.774Z,67.41
2023-05-05T03:14:13.061Z,67.44
2023-05-05T03:14:29.576Z,67.48
2023-05-05T03:14:45.870Z,67.49
2023-05-05T03:15:00.714Z,67.68
2023-05-05T03:15:14.280Z,67.56
2023-05-05T03:15:31.471Z,67.19
2023-05-05T03:15:46.638Z,67.07
2023-05-05T03:16:04.538Z,66.72
2023-05-05T03:16:18.290Z,67.03
2023-05-05T03:16:32.364Z,66.99
2023-05-05T03:16:46.913Z,66.89
2023-05-05T03:16:59.833Z,66.99
2023-05-05T03:17:13.358Z,67.01
2023-05-05T03:17:27.699Z,67.08
2023-05-05T03:17:41.689Z,67.13
2023-05-05T03:17:54.340Z,67.05
2023-05-05T03:18:08.347Z,66.98
2023-05-05T03:18:22.585Z,66.94
2023-05-05T03:18:37.453Z,66.91
2023-05-05T03:18:53.050Z,67.19
2023-05-05T03:19:06.974Z,67.24
2023-05-05T03:19:20.142Z,67.22
2023-05-05T03:19:32.206Z,67.25
2023-05-05T03:19:44.497Z,67.18
2023-05-05T03:19:57.118Z,67.03
2023-05-05T03:20:11.136Z,67.07
2023-05-05T03:20:23.371Z,67.02
2023-05-05T03:20:38.731Z,67.02
2023-05-05T03:20:52.258Z,67.30
2023-05-05T03:21:08.797Z,67.14
2023-05-05T03:21:21.460Z,67.33
2023-05-05T03:21:33.645Z,67.19
2023-05-05T03:21:45.847Z,67.11
2023-05-05T03:21:58.067Z,67.05